createdAt,value
2022-10-18T00:02:08.588Z,5.10
2022-10-18T00:12:13.234Z,5.00
2022-10-18T00:22:16.463Z,5.00
2022-10-18T00:32:21.377Z,5.10
2022-10-18T00:42:29.742Z,5.00
2022-10-18T00:52:43.891Z,4.80
2022-10-18T01:02:48.831Z,4.70
2022-10-18T01:13:08.244Z,4.70
2022-10-18T01:23:21.475Z,4.60
2022-10-18T01:33:34.666Z,4.30
2022-10-18T01:43:40.346Z,4.30
2022-10-18T01:53:44.880Z,4.20
2022-10-18T02:03:51.925Z,4.10
2022-10-18T02:14:01.050Z,4.00
2022-10-18T02:24:05.133Z,3.90
2022-10-18T02:34:18.058Z,3.90
2022-10-18T02:44:21.339Z,3.90
2022-10-18T02:54:26.115Z,4.00
2022-10-18T03:04:29.392Z,4.10
2022-10-18T03:14:34.109Z,4.30
2022-10-18T03:24:37.370Z,4.40
2022-10-18T03:34:41.922Z,4.00
2022-10-18T03:44:45.178Z,3.90
2022-10-18T03:54:49.768Z,3.80
2022-10-18T04:04:53.239Z,3.70
2022-10-18T04:14:57.965Z,3.60
2022-10-18T04:25:01.473Z,3.60
2022-10-18T04:35:07.580Z,3.50
2022-10-18T04:45:12.119Z,3.40
2022-10-18T04:55:16.891Z,3.30
2022-10-18T05:05:20.144Z,3.30
2022-10-18T05:15:25.201Z,3.30
2022-10-18T05:25:28.479Z,3.40
2022-10-18T05:35:33.471Z,3.40
2022-10-18T05:45:36.709Z,3.70
2022-10-18T05:55:41.399Z,4.00
2022-10-18T06:05:44.628Z,4.30
2022-10-18T06:15:49.332Z,4.90
2022-10-18T06:25:52.697Z,5.60
2022-10-18T06:35:59.122Z,7.10
2022-10-18T06:46:05.151Z,9.50
2022-10-18T06:56:12.886Z,11.30
2022-10-18T07:06:18.877Z,13.80
2022-10-18T07:16:23.822Z,16.20
2022-10-18T07:26:29.527Z,21.70
2022-10-18T07:36:34.381Z,24.70
2022-10-18T07:46:37.606Z,27.50
2022-10-18T07:56:42.159Z,29.70
2022-10-18T08:06:45.434Z,31.50
2022-10-18T08:16:49.997Z,33.40
2022-10-18T08:26:53.261Z,35.60
2022-10-18T08:36:57.845Z,37.30
2022-10-18T08:47:05.777Z,39.10
2022-10-18T08:57:18.155Z,40.50
2022-10-18T09:07:51.590Z,41.80
2022-10-18T09:18:14.022Z,43.00
2022-10-18T09:28:28.861Z,44.70
2022-10-18T09:38:43.094Z,45.00
2022-10-18T09:48:52.539Z,45.40
2022-10-18T09:58:57.195Z,47.40
2022-10-18T10:09:06.629Z,48.70
2022-10-18T10:19:22.381Z,49.90
2022-10-18T10:29:57.720Z,50.90
2022-10-18T10:40:23.954Z,50.70
2022-10-18T10:50:31.758Z,51.10
2022-10-18T11:00:44.351Z,52.00
2022-10-18T11:11:02.352Z,52.30
2022-10-18T11:21:11.774Z,50.80
2022-10-18T11:31:25.063Z,52.20
2022-10-18T11:41:39.884Z,53.40
2022-10-18T11:52:09.654Z,52.00
2022-10-18T12:02:41.416Z,52.00
2022-10-18T12:12:53.946Z,51.90
2022-10-18T12:23:04.297Z,51.80
2022-10-18T12:33:28.898Z,50.90
2022-10-18T12:43:37.762Z,50.70
2022-10-18T12:53:42.278Z,50.70
2022-10-18T13:03:59.120Z,49.40
2022-10-18T13:14:27.307Z,48.40
2022-10-18T13:24:38.998Z,47.10
2022-10-18T13:34:42.623Z,45.00
2022-10-18T13:44:47.429Z,44.60
2022-10-18T13:55:15.720Z,43.60
2022-10-18T14:05:47.030Z,42.90
2022-10-18T14:15:53.214Z,39.70
2022-10-18T14:26:08.629Z,31.30
2022-10-18T14:36:16.022Z,26.70
2022-10-18T14:46:28.983Z,23.70
2022-10-18T14:56:39.596Z,22.10
2022-10-18T15:06:46.083Z,20.80
2022-10-18T15:16:50.866Z,19.50
2022-10-18T15:26:59.009Z,18.50
2022-10-18T15:37:19.274Z,17.60
2022-10-18T15:47:25.176Z,16.50
2022-10-18T15:57:32.557Z,15.50
2022-10-18T16:07:37.382Z,14.80
2022-10-18T16:17:40.618Z,14.10
2022-10-18T16:27:45.248Z,13.50
2022-10-18T16:37:48.595Z,12.90
2022-10-18T16:47:53.278Z,12.30
2022-10-18T16:57:56.634Z,11.80
2022-10-18T17:08:01.318Z,11.50
2022-10-18T17:18:06.079Z,11.30
2022-10-18T17:28:15.111Z,11.10
2022-10-18T17:38:18.347Z,11.00
2022-10-18T17:48:23.895Z,10.80
2022-10-18T17:58:27.291Z,11.00
2022-10-18T18:08:32.400Z,11.00
2022-10-18T18:18:35.800Z,11.10
2022-10-18T18:28:40.728Z,11.50
2022-10-18T18:38:44.811Z,12.00
2022-10-18T18:48:50.094Z,12.50
2022-10-18T18:58:54.560Z,12.80
2022-10-18T19:09:02.946Z,13.10
2022-10-18T19:19:09.061Z,13.30
2022-10-18T19:29:17.834Z,13.40
2022-10-18T19:39:23.828Z,13.60
2022-10-18T19:49:29.030Z,13.80
2022-10-18T19:59:32.526Z,14.00
2022-10-18T20:09:37.183Z,14.10
2022-10-18T20:19:40.518Z,14.20
2022-10-18T20:29:45.283Z,14.40
2022-10-18T20:39:48.704Z,14.50
2022-10-18T20:49:53.374Z,14.60
2022-10-18T20:59:56.803Z,14.30
2022-10-18T21:10:01.717Z,13.70
2022-10-18T21:20:06.354Z,13.00
2022-10-18T21:40:20.848Z,12.50
2022-10-18T21:50:49.982Z,12.40
2022-10-18T22:00:53.436Z,12.40
2022-10-18T22:10:58.708Z,12.50
2022-10-18T22:21:05.010Z,12.50
2022-10-18T22:31:16.435Z,12.40
2022-10-18T22:41:20.303Z,12.40
2022-10-18T22:51:24.998Z,12.30
2022-10-18T23:01:28.297Z,12.30
2022-10-18T23:11:34.515Z,12.10
2022-10-18T23:21:37.808Z,12.00
2022-10-18T23:31:42.396Z,11.90
2022-10-18T23:41:45.643Z,11.80
2022-10-18T23:51:50.318Z,11.80
